sensor_id;sensor_type;location;lat;lon;timestamp;P1;durP1;ratioP1;P2;durP2;ratioP2
81036;SDS011;70521;47.468;19.306;2024-01-25T00:01:47;14.45;;;13.45;;
81036;SDS011;70521;47.468;19.306;2024-01-25T00:04:48;19.25;;;18.45;;
81036;SDS011;70521;47.468;19.306;2024-01-25T00:07:49;12.00;;;11.25;;
81036;SDS011;70521;47.468;19.306;2024-01-25T00:10:50;13.07;;;11.68;;
81036;SDS011;70521;47.468;19.306;2024-01-25T00:13:51;17.77;;;16.67;;
81036;SDS011;70521;47.468;19.306;2024-01-25T00:16:52;17.40;;;16.10;;
81036;SDS011;70521;47.468;19.306;2024-01-25T00:19:53;14.88;;;14.00;;
81036;SDS011;70521;47.468;19.306;2024-01-25T00:22:54;11.63;;;10.65;;
81036;SDS011;70521;47.468;19.306;2024-01-25T00:25:55;11.57;;;10.85;;
81036;SDS011;70521;47.468;19.306;2024-01-25T00:28:59;11.00;;;10.10;;
81036;SDS011;70521;47.468;19.306;2024-01-25T00:31:59;10.82;;;10.02;;
81036;SDS011;70521;47.468;19.306;2024-01-25T00:35:01;12.27;;;11.30;;
81036;SDS011;70521;47.468;19.306;2024-01-25T00:38:02;13.55;;;12.43;;
81036;SDS011;70521;47.468;19.306;2024-01-25T00:41:04;9.75;;;9.25;;
81036;SDS011;70521;47.468;19.306;2024-01-25T00:44:09;8.80;;;8.23;;
81036;SDS011;70521;47.468;19.306;2024-01-25T00:47:10;9.68;;;9.07;;
81036;SDS011;70521;47.468;19.306;2024-01-25T00:50:11;11.50;;;10.60;;
81036;SDS011;70521;47.468;19.306;2024-01-25T00:53:12;13.32;;;12.43;;
81036;SDS011;70521;47.468;19.306;2024-01-25T00:56:13;11.70;;;10.90;;
81036;SDS011;70521;47.468;19.306;2024-01-25T00:59:14;14.63;;;13.65;;
81036;SDS011;70521;47.468;19.306;2024-01-25T01:02:15;13.25;;;12.43;;
81036;SDS011;70521;47.468;19.306;2024-01-25T01:05:16;12.85;;;11.80;;
81036;SDS011;70521;47.468;19.306;2024-01-25T01:08:17;7.68;;;6.97;;
81036;SDS011;70521;47.468;19.306;2024-01-25T01:11:18;14.25;;;13.50;;
81036;SDS011;70521;47.468;19.306;2024-01-25T01:14:19;11.45;;;10.55;;
81036;SDS011;70521;47.468;19.306;2024-01-25T01:17:20;19.17;;;18.27;;
81036;SDS011;70521;47.468;19.306;2024-01-25T01:20:21;10.75;;;10.15;;
81036;SDS011;70521;47.468;19.306;2024-01-25T01:23:22;11.68;;;10.57;;
81036;SDS011;70521;47.468;19.306;2024-01-25T01:26:23;10.52;;;9.93;;
81036;SDS011;70521;47.468;19.306;2024-01-25T01:29:24;11.98;;;11.20;;
81036;SDS011;70521;47.468;19.306;2024-01-25T01:32:25;17.98;;;16.92;;
81036;SDS011;70521;47.468;19.306;2024-01-25T01:35:26;15.82;;;14.77;;
81036;SDS011;70521;47.468;19.306;2024-01-25T01:38:27;7.85;;;7.47;;
81036;SDS011;70521;47.468;19.306;2024-01-25T01:41:27;16.45;;;15.48;;
81036;SDS011;70521;47.468;19.306;2024-01-25T01:44:29;10.48;;;9.85;;
81036;SDS011;70521;47.468;19.306;2024-01-25T01:47:30;9.15;;;8.75;;
81036;SDS011;70521;47.468;19.306;2024-01-25T01:50:31;9.68;;;9.00;;
81036;SDS011;70521;47.468;19.306;2024-01-25T01:53:35;18.65;;;17.52;;
81036;SDS011;70521;47.468;19.306;2024-01-25T01:56:36;18.10;;;17.40;;
81036;SDS011;70521;47.468;19.306;2024-01-25T01:59:37;11.02;;;10.43;;
81036;SDS011;70521;47.468;19.306;2024-01-25T02:02:38;13.63;;;13.02;;
81036;SDS011;70521;47.468;19.306;2024-01-25T02:05:39;7.75;;;7.28;;
81036;SDS011;70521;47.468;19.306;2024-01-25T02:08:40;16.00;;;9.50;;
81036;SDS011;70521;47.468;19.306;2024-01-25T02:11:41;10.50;;;9.75;;
81036;SDS011;70521;47.468;19.306;2024-01-25T02:14:42;11.85;;;10.93;;
81036;SDS011;70521;47.468;19.306;2024-01-25T02:17:43;13.57;;;12.95;;
81036;SDS011;70521;47.468;19.306;2024-01-25T02:20:44;10.98;;;10.27;;
81036;SDS011;70521;47.468;19.306;2024-01-25T02:23:44;13.27;;;12.77;;
81036;SDS011;70521;47.468;19.306;2024-01-25T02:26:47;15.07;;;14.38;;
81036;SDS011;70521;47.468;19.306;2024-01-25T02:29:48;12.18;;;10.55;;
81036;SDS011;70521;47.468;19.306;2024-01-25T02:32:49;11.85;;;11.25;;
81036;SDS011;70521;47.468;19.306;2024-01-25T02:35:50;12.52;;;11.52;;
81036;SDS011;70521;47.468;19.306;2024-01-25T02:38:51;11.27;;;10.68;;
81036;SDS011;70521;47.468;19.306;2024-01-25T02:41:51;22.52;;;21.27;;
81036;SDS011;70521;47.468;19.306;2024-01-25T02:44:52;10.95;;;10.15;;
81036;SDS011;70521;47.468;19.306;2024-01-25T02:47:53;11.15;;;10.32;;
81036;SDS011;70521;47.468;19.306;2024-01-25T02:50:54;8.43;;;7.78;;
81036;SDS011;70521;47.468;19.306;2024-01-25T02:53:55;11.07;;;10.45;;
81036;SDS011;70521;47.468;19.306;2024-01-25T02:56:56;12.95;;;12.38;;
81036;SDS011;70521;47.468;19.306;2024-01-25T02:59:57;15.20;;;14.23;;
81036;SDS011;70521;47.468;19.306;2024-01-25T03:02:58;14.35;;;13.57;;
81036;SDS011;70521;47.468;19.306;2024-01-25T03:05:59;12.77;;;12.07;;
81036;SDS011;70521;47.468;19.306;2024-01-25T03:09:00;11.57;;;11.15;;
81036;SDS011;70521;47.468;19.306;2024-01-25T03:12:01;12.27;;;11.45;;
81036;SDS011;70521;47.468;19.306;2024-01-25T03:15:02;7.93;;;7.28;;
81036;SDS011;70521;47.468;19.306;2024-01-25T03:18:04;9.88;;;7.38;;
81036;SDS011;70521;47.468;19.306;2024-01-25T03:21:05;12.52;;;11.52;;
81036;SDS011;70521;47.468;19.306;2024-01-25T03:24:06;12.73;;;9.40;;
81036;SDS011;70521;47.468;19.306;2024-01-25T03:27:07;12.68;;;11.57;;
81036;SDS011;70521;47.468;19.306;2024-01-25T03:30:13;12.00;;;11.43;;
81036;SDS011;70521;47.468;19.306;2024-01-25T03:33:14;12.40;;;11.43;;
81036;SDS011;70521;47.468;19.306;2024-01-25T03:36:15;8.48;;;7.95;;
81036;SDS011;70521;47.468;19.306;2024-01-25T03:39:16;7.93;;;7.43;;
81036;SDS011;70521;47.468;19.306;2024-01-25T03:42:18;13.50;;;12.60;;
81036;SDS011;70521;47.468;19.306;2024-01-25T03:45:19;9.50;;;8.73;;
81036;SDS011;70521;47.468;19.306;2024-01-25T03:48:20;13.80;;;12.98;;
81036;SDS011;70521;47.468;19.306;2024-01-25T03:51:22;10.77;;;10.13;;
81036;SDS011;70521;47.468;19.306;2024-01-25T03:54:24;8.38;;;7.88;;
81036;SDS011;70521;47.468;19.306;2024-01-25T03:57:25;6.78;;;6.22;;
81036;SDS011;70521;47.468;19.306;2024-01-25T04:00:26;12.63;;;11.88;;
81036;SDS011;70521;47.468;19.306;2024-01-25T04:03:27;9.55;;;8.95;;
81036;SDS011;70521;47.468;19.306;2024-01-25T04:06:28;10.18;;;9.60;;
81036;SDS011;70521;47.468;19.306;2024-01-25T04:09:29;9.60;;;9.02;;
81036;SDS011;70521;47.468;19.306;2024-01-25T04:12:30;8.95;;;8.27;;
81036;SDS011;70521;47.468;19.306;2024-01-25T04:15:32;8.82;;;8.25;;
81036;SDS011;70521;47.468;19.306;2024-01-25T04:18:32;10.52;;;9.82;;
81036;SDS011;70521;47.468;19.306;2024-01-25T04:21:36;10.27;;;9.57;;
81036;SDS011;70521;47.468;19.306;2024-01-25T04:24:37;14.20;;;13.20;;
81036;SDS011;70521;47.468;19.306;2024-01-25T04:27:39;7.22;;;6.85;;
81036;SDS011;70521;47.468;19.306;2024-01-25T04:30:40;10.18;;;9.60;;
81036;SDS011;70521;47.468;19.306;2024-01-25T04:33:41;11.93;;;11.10;;
81036;SDS011;70521;47.468;19.306;2024-01-25T04:36:42;8.60;;;8.20;;
81036;SDS011;70521;47.468;19.306;2024-01-25T04:39:43;7.35;;;6.93;;
81036;SDS011;70521;47.468;19.306;2024-01-25T04:42:44;12.02;;;11.23;;
81036;SDS011;70521;47.468;19.306;2024-01-25T04:45:45;13.13;;;12.35;;
81036;SDS011;70521;47.468;19.306;2024-01-25T04:48:46;9.57;;;8.90;;
81036;SDS011;70521;47.468;19.306;2024-01-25T04:51:47;12.00;;;11.05;;
81036;SDS011;70521;47.468;19.306;2024-01-25T04:54:48;7.45;;;6.97;;
81036;SDS011;70521;47.468;19.306;2024-01-25T04:57:49;10.45;;;9.82;;
81036;SDS011;70521;47.468;19.306;2024-01-25T05:00:54;6.63;;;6.13;;
81036;SDS011;70521;47.468;19.306;2024-01-25T05:03:56;9.75;;;9.00;;
81036;SDS011;70521;47.468;19.306;2024-01-25T05:06:56;8.32;;;7.53;;
81036;SDS011;70521;47.468;19.306;2024-01-25T05:09:57;8.00;;;7.57;;
81036;SDS011;70521;47.468;19.306;2024-01-25T05:12:58;11.32;;;10.40;;
81036;SDS011;70521;47.468;19.306;2024-01-25T05:15:59;13.63;;;12.65;;
81036;SDS011;70521;47.468;19.306;2024-01-25T05:19:00;9.45;;;8.35;;
81036;SDS011;70521;47.468;19.306;2024-01-25T05:22:01;8.93;;;8.32;;
81036;SDS011;70521;47.468;19.306;2024-01-25T05:25:09;14.15;;;13.20;;
81036;SDS011;70521;47.468;19.306;2024-01-25T05:28:10;10.45;;;9.55;;
81036;SDS011;70521;47.468;19.306;2024-01-25T05:31:11;8.05;;;7.40;;
81036;SDS011;70521;47.468;19.306;2024-01-25T05:34:13;9.38;;;8.80;;
81036;SDS011;70521;47.468;19.306;2024-01-25T05:37:14;10.77;;;10.05;;
81036;SDS011;70521;47.468;19.306;2024-01-25T05:40:15;8.88;;;6.97;;
81036;SDS011;70521;47.468;19.306;2024-01-25T05:43:16;9.38;;;8.60;;
81036;SDS011;70521;47.468;19.306;2024-01-25T05:46:17;10.10;;;9.43;;
81036;SDS011;70521;47.468;19.306;2024-01-25T05:49:18;9.23;;;8.70;;
81036;SDS011;70521;47.468;19.306;2024-01-25T05:52:19;9.55;;;8.30;;
81036;SDS011;70521;47.468;19.306;2024-01-25T05:55:22;9.85;;;8.63;;
81036;SDS011;70521;47.468;19.306;2024-01-25T05:58:23;12.10;;;11.20;;
81036;SDS011;70521;47.468;19.306;2024-01-25T06:01:23;14.43;;;13.13;;
81036;SDS011;70521;47.468;19.306;2024-01-25T06:04:25;20.50;;;19.30;;
81036;SDS011;70521;47.468;19.306;2024-01-25T06:07:26;19.48;;;18.35;;
81036;SDS011;70521;47.468;19.306;2024-01-25T06:10:27;7.97;;;7.25;;
81036;SDS011;70521;47.468;19.306;2024-01-25T06:13:28;12.40;;;11.45;;
81036;SDS011;70521;47.468;19.306;2024-01-25T06:16:29;16.63;;;15.82;;
81036;SDS011;70521;47.468;19.306;2024-01-25T06:19:30;12.63;;;11.48;;
81036;SDS011;70521;47.468;19.306;2024-01-25T06:22:31;10.07;;;9.15;;
81036;SDS011;70521;47.468;19.306;2024-01-25T06:25:31;15.40;;;14.15;;
81036;SDS011;70521;47.468;19.306;2024-01-25T06:28:33;11.10;;;10.50;;
81036;SDS011;70521;47.468;19.306;2024-01-25T06:31:40;10.27;;;8.75;;
81036;SDS011;70521;47.468;19.306;2024-01-25T06:34:41;10.60;;;9.63;;
81036;SDS011;70521;47.468;19.306;2024-01-25T06:37:42;8.98;;;8.30;;
81036;SDS011;70521;47.468;19.306;2024-01-25T06:40:43;12.73;;;12.07;;
81036;SDS011;70521;47.468;19.306;2024-01-25T06:43:44;8.52;;;8.00;;
81036;SDS011;70521;47.468;19.306;2024-01-25T06:46:45;9.18;;;8.73;;
81036;SDS011;70521;47.468;19.306;2024-01-25T06:49:46;7.53;;;6.03;;
81036;SDS011;70521;47.468;19.306;2024-01-25T06:52:52;7.93;;;7.13;;
81036;SDS011;70521;47.468;19.306;2024-01-25T06:55:54;8.93;;;8.05;;
81036;SDS011;70521;47.468;19.306;2024-01-25T06:58:55;12.52;;;11.52;;
81036;SDS011;70521;47.468;19.306;2024-01-25T07:01:56;7.28;;;6.68;;
81036;SDS011;70521;47.468;19.306;2024-01-25T07:04:57;10.20;;;9.40;;
81036;SDS011;70521;47.468;19.306;2024-01-25T07:07:58;8.15;;;7.40;;
81036;SDS011;70521;47.468;19.306;2024-01-25T07:10:58;13.20;;;12.13;;
81036;SDS011;70521;47.468;19.306;2024-01-25T07:14:02;8.95;;;8.55;;
81036;SDS011;70521;47.468;19.306;2024-01-25T07:17:03;7.35;;;6.78;;
81036;SDS011;70521;47.468;19.306;2024-01-25T07:20:04;9.15;;;8.25;;
81036;SDS011;70521;47.468;19.306;2024-01-25T07:23:06;14.05;;;13.30;;
81036;SDS011;70521;47.468;19.306;2024-01-25T07:26:07;9.93;;;9.23;;
81036;SDS011;70521;47.468;19.306;2024-01-25T07:29:08;8.60;;;7.90;;
81036;SDS011;70521;47.468;19.306;2024-01-25T07:32:09;12.18;;;10.48;;
81036;SDS011;70521;47.468;19.306;2024-01-25T07:35:10;8.27;;;5.50;;
81036;SDS011;70521;47.468;19.306;2024-01-25T07:38:11;6.13;;;5.63;;
81036;SDS011;70521;47.468;19.306;2024-01-25T07:41:13;7.15;;;6.65;;
81036;SDS011;70521;47.468;19.306;2024-01-25T07:44:13;5.93;;;4.78;;
81036;SDS011;70521;47.468;19.306;2024-01-25T07:47:14;5.05;;;3.60;;
81036;SDS011;70521;47.468;19.306;2024-01-25T07:50:15;5.53;;;5.00;;
81036;SDS011;70521;47.468;19.306;2024-01-25T07:53:17;9.77;;;8.68;;
81036;SDS011;70521;47.468;19.306;2024-01-25T07:56:18;11.02;;;5.18;;
81036;SDS011;70521;47.468;19.306;2024-01-25T07:59:19;4.50;;;3.42;;
81036;SDS011;70521;47.468;19.306;2024-01-25T08:02:20;8.35;;;5.15;;
81036;SDS011;70521;47.468;19.306;2024-01-25T08:05:21;4.90;;;2.95;;
81036;SDS011;70521;47.468;19.306;2024-01-25T08:08:22;5.43;;;3.70;;
81036;SDS011;70521;47.468;19.306;2024-01-25T08:11:23;6.03;;;3.33;;
81036;SDS011;70521;47.468;19.306;2024-01-25T08:14:25;7.30;;;3.30;;
81036;SDS011;70521;47.468;19.306;2024-01-25T08:17:26;7.90;;;3.28;;
81036;SDS011;70521;47.468;19.306;2024-01-25T08:20:26;3.92;;;2.50;;
81036;SDS011;70521;47.468;19.306;2024-01-25T08:23:27;4.32;;;2.60;;
81036;SDS011;70521;47.468;19.306;2024-01-25T08:26:28;6.05;;;2.50;;
81036;SDS011;70521;47.468;19.306;2024-01-25T08:29:29;3.17;;;2.45;;
81036;SDS011;70521;47.468;19.306;2024-01-25T08:32:30;5.32;;;2.55;;
81036;SDS011;70521;47.468;19.306;2024-01-25T08:35:31;3.75;;;2.55;;
81036;SDS011;70521;47.468;19.306;2024-01-25T08:38:32;6.90;;;3.67;;
81036;SDS011;70521;47.468;19.306;2024-01-25T08:41:33;6.90;;;2.63;;
81036;SDS011;70521;47.468;19.306;2024-01-25T08:44:34;4.03;;;2.67;;
81036;SDS011;70521;47.468;19.306;2024-01-25T08:47:35;5.32;;;2.60;;
81036;SDS011;70521;47.468;19.306;2024-01-25T08:50:36;7.10;;;3.20;;
81036;SDS011;70521;47.468;19.306;2024-01-25T08:53:37;7.57;;;3.00;;
81036;SDS011;70521;47.468;19.306;2024-01-25T08:56:38;5.35;;;2.42;;
81036;SDS011;70521;47.468;19.306;2024-01-25T08:59:41;5.85;;;2.58;;
81036;SDS011;70521;47.468;19.306;2024-01-25T09:02:42;8.20;;;2.35;;
81036;SDS011;70521;47.468;19.306;2024-01-25T09:05:43;5.90;;;2.80;;
81036;SDS011;70521;47.468;19.306;2024-01-25T09:08:47;5.50;;;2.67;;
81036;SDS011;70521;47.468;19.306;2024-01-25T09:11:48;9.00;;;3.10;;
81036;SDS011;70521;47.468;19.306;2024-01-25T09:14:49;4.05;;;3.13;;
81036;SDS011;70521;47.468;19.306;2024-01-25T09:17:50;7.45;;;4.85;;
81036;SDS011;70521;47.468;19.306;2024-01-25T09:20:51;3.70;;;3.15;;
81036;SDS011;70521;47.468;19.306;2024-01-25T09:23:52;6.32;;;4.57;;
81036;SDS011;70521;47.468;19.306;2024-01-25T09:26:52;8.35;;;5.03;;
81036;SDS011;70521;47.468;19.306;2024-01-25T09:29:53;7.63;;;4.82;;
81036;SDS011;70521;47.468;19.306;2024-01-25T09:32:54;8.43;;;4.85;;
81036;SDS011;70521;47.468;19.306;2024-01-25T09:35:55;7.32;;;4.68;;
81036;SDS011;70521;47.468;19.306;2024-01-25T09:38:56;7.93;;;4.03;;
81036;SDS011;70521;47.468;19.306;2024-01-25T09:41:57;6.60;;;5.25;;
81036;SDS011;70521;47.468;19.306;2024-01-25T09:44:58;6.47;;;5.97;;
81036;SDS011;70521;47.468;19.306;2024-01-25T09:47:59;5.78;;;3.53;;
81036;SDS011;70521;47.468;19.306;2024-01-25T09:51:00;4.65;;;3.33;;
81036;SDS011;70521;47.468;19.306;2024-01-25T09:54:01;5.65;;;4.68;;
81036;SDS011;70521;47.468;19.306;2024-01-25T09:57:03;9.02;;;3.50;;
81036;SDS011;70521;47.468;19.306;2024-01-25T10:00:06;3.55;;;2.67;;
81036;SDS011;70521;47.468;19.306;2024-01-25T10:03:12;7.50;;;3.17;;
81036;SDS011;70521;47.468;19.306;2024-01-25T10:06:13;8.23;;;3.95;;
81036;SDS011;70521;47.468;19.306;2024-01-25T10:09:15;6.22;;;3.25;;
81036;SDS011;70521;47.468;19.306;2024-01-25T10:12:16;5.40;;;4.25;;
81036;SDS011;70521;47.468;19.306;2024-01-25T10:15:17;4.07;;;3.80;;
81036;SDS011;70521;47.468;19.306;2024-01-25T10:18:17;7.35;;;6.70;;
81036;SDS011;70521;47.468;19.306;2024-01-25T10:21:19;4.57;;;4.22;;
81036;SDS011;70521;47.468;19.306;2024-01-25T10:24:20;6.47;;;4.45;;
81036;SDS011;70521;47.468;19.306;2024-01-25T10:27:21;5.82;;;4.35;;
81036;SDS011;70521;47.468;19.306;2024-01-25T10:30:23;8.43;;;7.82;;
81036;SDS011;70521;47.468;19.306;2024-01-25T10:33:24;16.83;;;15.95;;
81036;SDS011;70521;47.468;19.306;2024-01-25T10:36:26;7.68;;;7.10;;
81036;SDS011;70521;47.468;19.306;2024-01-25T10:39:28;6.03;;;4.97;;
81036;SDS011;70521;47.468;19.306;2024-01-25T10:42:29;7.18;;;4.53;;
81036;SDS011;70521;47.468;19.306;2024-01-25T10:45:30;11.68;;;11.00;;
81036;SDS011;70521;47.468;19.306;2024-01-25T10:48:32;9.85;;;5.88;;
81036;SDS011;70521;47.468;19.306;2024-01-25T10:51:33;7.22;;;6.47;;
81036;SDS011;70521;47.468;19.306;2024-01-25T10:54:34;4.60;;;4.20;;
81036;SDS011;70521;47.468;19.306;2024-01-25T10:57:38;6.30;;;5.90;;
81036;SDS011;70521;47.468;19.306;2024-01-25T11:00:39;5.32;;;4.63;;
81036;SDS011;70521;47.468;19.306;2024-01-25T11:03:40;4.60;;;3.58;;
81036;SDS011;70521;47.468;19.306;2024-01-25T11:06:42;5.10;;;3.80;;
81036;SDS011;70521;47.468;19.306;2024-01-25T11:09:43;8.90;;;4.50;;
81036;SDS011;70521;47.468;19.306;2024-01-25T11:15:49;4.38;;;3.95;;
81036;SDS011;70521;47.468;19.306;2024-01-25T11:18:51;7.50;;;6.25;;
81036;SDS011;70521;47.468;19.306;2024-01-25T11:21:52;7.70;;;7.13;;
81036;SDS011;70521;47.468;19.306;2024-01-25T11:24:53;6.50;;;3.90;;
81036;SDS011;70521;47.468;19.306;2024-01-25T11:27:54;6.25;;;5.65;;
81036;SDS011;70521;47.468;19.306;2024-01-25T11:30:55;10.10;;;4.85;;
81036;SDS011;70521;47.468;19.306;2024-01-25T11:34:00;6.50;;;4.10;;
81036;SDS011;70521;47.468;19.306;2024-01-25T11:37:01;4.75;;;4.30;;
81036;SDS011;70521;47.468;19.306;2024-01-25T11:40:02;6.43;;;6.00;;
81036;SDS011;70521;47.468;19.306;2024-01-25T11:43:04;7.00;;;6.50;;
81036;SDS011;70521;47.468;19.306;2024-01-25T11:46:07;7.60;;;5.85;;
81036;SDS011;70521;47.468;19.306;2024-01-25T11:49:09;8.50;;;5.05;;
81036;SDS011;70521;47.468;19.306;2024-01-25T11:52:09;8.80;;;5.68;;
81036;SDS011;70521;47.468;19.306;2024-01-25T11:55:10;11.10;;;5.22;;
81036;SDS011;70521;47.468;19.306;2024-01-25T11:58:11;8.10;;;6.03;;
81036;SDS011;70521;47.468;19.306;2024-01-25T12:01:12;7.75;;;6.07;;
81036;SDS011;70521;47.468;19.306;2024-01-25T12:04:14;6.85;;;5.47;;
81036;SDS011;70521;47.468;19.306;2024-01-25T12:07:15;6.75;;;6.20;;
81036;SDS011;70521;47.468;19.306;2024-01-25T12:10:16;6.95;;;6.18;;
81036;SDS011;70521;47.468;19.306;2024-01-25T12:13:18;7.93;;;5.03;;
81036;SDS011;70521;47.468;19.306;2024-01-25T12:16:19;6.80;;;6.28;;
81036;SDS011;70521;47.468;19.306;2024-01-25T12:19:20;5.55;;;5.15;;
81036;SDS011;70521;47.468;19.306;2024-01-25T12:22:21;6.50;;;5.90;;
81036;SDS011;70521;47.468;19.306;2024-01-25T12:25:23;6.20;;;5.30;;
81036;SDS011;70521;47.468;19.306;2024-01-25T12:28:25;7.53;;;4.75;;
81036;SDS011;70521;47.468;19.306;2024-01-25T12:31:26;8.23;;;7.50;;
81036;SDS011;70521;47.468;19.306;2024-01-25T12:34:27;7.05;;;6.43;;
81036;SDS011;70521;47.468;19.306;2024-01-25T12:37:28;5.03;;;4.63;;
81036;SDS011;70521;47.468;19.306;2024-01-25T12:40:29;4.90;;;4.32;;
81036;SDS011;70521;47.468;19.306;2024-01-25T12:43:30;6.53;;;4.95;;
81036;SDS011;70521;47.468;19.306;2024-01-25T12:46:31;12.75;;;11.85;;
81036;SDS011;70521;47.468;19.306;2024-01-25T12:49:32;10.15;;;4.45;;
81036;SDS011;70521;47.468;19.306;2024-01-25T12:52:33;5.78;;;5.38;;
81036;SDS011;70521;47.468;19.306;2024-01-25T12:55:34;6.25;;;5.75;;
81036;SDS011;70521;47.468;19.306;2024-01-25T12:58:35;6.55;;;5.93;;
81036;SDS011;70521;47.468;19.306;2024-01-25T13:01:36;9.15;;;8.20;;
81036;SDS011;70521;47.468;19.306;2024-01-25T13:04:37;5.55;;;5.05;;
81036;SDS011;70521;47.468;19.306;2024-01-25T13:07:38;5.32;;;4.35;;
81036;SDS011;70521;47.468;19.306;2024-01-25T13:10:39;11.63;;;10.48;;
81036;SDS011;70521;47.468;19.306;2024-01-25T13:13:40;5.50;;;5.07;;
81036;SDS011;70521;47.468;19.306;2024-01-25T13:16:41;9.13;;;8.50;;
81036;SDS011;70521;47.468;19.306;2024-01-25T13:19:42;8.55;;;5.97;;
81036;SDS011;70521;47.468;19.306;2024-01-25T13:22:43;7.35;;;6.53;;
81036;SDS011;70521;47.468;19.306;2024-01-25T13:25:44;7.90;;;7.40;;
81036;SDS011;70521;47.468;19.306;2024-01-25T13:28:44;5.57;;;4.78;;
81036;SDS011;70521;47.468;19.306;2024-01-25T13:31:46;6.30;;;4.80;;
81036;SDS011;70521;47.468;19.306;2024-01-25T13:34:47;7.10;;;5.55;;
81036;SDS011;70521;47.468;19.306;2024-01-25T13:37:47;5.78;;;5.50;;
81036;SDS011;70521;47.468;19.306;2024-01-25T13:40:49;6.85;;;6.35;;
81036;SDS011;70521;47.468;19.306;2024-01-25T13:43:50;5.10;;;4.70;;
81036;SDS011;70521;47.468;19.306;2024-01-25T13:46:51;6.80;;;4.47;;
81036;SDS011;70521;47.468;19.306;2024-01-25T13:49:52;7.15;;;5.25;;
81036;SDS011;70521;47.468;19.306;2024-01-25T13:52:53;6.13;;;4.85;;
81036;SDS011;70521;47.468;19.306;2024-01-25T13:55:54;6.97;;;6.38;;
81036;SDS011;70521;47.468;19.306;2024-01-25T13:58:55;5.57;;;5.18;;
81036;SDS011;70521;47.468;19.306;2024-01-25T14:01:56;6.00;;;5.38;;
81036;SDS011;70521;47.468;19.306;2024-01-25T14:04:57;12.90;;;12.25;;
81036;SDS011;70521;47.468;19.306;2024-01-25T14:07:58;6.55;;;6.18;;
81036;SDS011;70521;47.468;19.306;2024-01-25T14:11:00;9.80;;;9.23;;
81036;SDS011;70521;47.468;19.306;2024-01-25T14:14:01;7.07;;;6.57;;
81036;SDS011;70521;47.468;19.306;2024-01-25T14:17:02;9.15;;;8.60;;
81036;SDS011;70521;47.468;19.306;2024-01-25T14:20:03;6.70;;;6.07;;
81036;SDS011;70521;47.468;19.306;2024-01-25T14:23:05;12.65;;;11.82;;
81036;SDS011;70521;47.468;19.306;2024-01-25T14:26:06;7.30;;;6.85;;
81036;SDS011;70521;47.468;19.306;2024-01-25T14:29:07;9.10;;;8.55;;
81036;SDS011;70521;47.468;19.306;2024-01-25T14:32:08;6.45;;;6.03;;
81036;SDS011;70521;47.468;19.306;2024-01-25T14:35:09;5.68;;;5.22;;
81036;SDS011;70521;47.468;19.306;2024-01-25T14:38:10;8.07;;;7.43;;
81036;SDS011;70521;47.468;19.306;2024-01-25T14:41:11;9.02;;;8.35;;
81036;SDS011;70521;47.468;19.306;2024-01-25T14:44:12;8.23;;;7.30;;
81036;SDS011;70521;47.468;19.306;2024-01-25T14:47:13;7.80;;;7.13;;
81036;SDS011;70521;47.468;19.306;2024-01-25T14:50:20;9.15;;;8.57;;
81036;SDS011;70521;47.468;19.306;2024-01-25T14:53:21;6.38;;;5.97;;
81036;SDS011;70521;47.468;19.306;2024-01-25T14:56:22;7.43;;;7.13;;
81036;SDS011;70521;47.468;19.306;2024-01-25T14:59:23;6.65;;;6.28;;
81036;SDS011;70521;47.468;19.306;2024-01-25T15:02:26;9.73;;;9.18;;
81036;SDS011;70521;47.468;19.306;2024-01-25T15:05:27;8.10;;;7.38;;
81036;SDS011;70521;47.468;19.306;2024-01-25T15:08:27;7.85;;;7.15;;
81036;SDS011;70521;47.468;19.306;2024-01-25T15:11:29;19.13;;;17.45;;
81036;SDS011;70521;47.468;19.306;2024-01-25T15:14:30;8.80;;;7.93;;
81036;SDS011;70521;47.468;19.306;2024-01-25T15:17:31;7.15;;;6.50;;
81036;SDS011;70521;47.468;19.306;2024-01-25T15:20:31;10.32;;;5.85;;
81036;SDS011;70521;47.468;19.306;2024-01-25T15:23:36;6.63;;;6.20;;
81036;SDS011;70521;47.468;19.306;2024-01-25T15:26:40;14.18;;;13.27;;
81036;SDS011;70521;47.468;19.306;2024-01-25T15:29:41;9.15;;;8.73;;
81036;SDS011;70521;47.468;19.306;2024-01-25T15:32:42;6.63;;;6.03;;
81036;SDS011;70521;47.468;19.306;2024-01-25T15:35:47;8.35;;;6.53;;
81036;SDS011;70521;47.468;19.306;2024-01-25T15:38:48;7.88;;;7.28;;
81036;SDS011;70521;47.468;19.306;2024-01-25T15:41:50;9.65;;;9.35;;
81036;SDS011;70521;47.468;19.306;2024-01-25T15:44:53;10.52;;;9.93;;
81036;SDS011;70521;47.468;19.306;2024-01-25T15:47:55;10.63;;;10.02;;
81036;SDS011;70521;47.468;19.306;2024-01-25T15:50:55;8.35;;;7.78;;
81036;SDS011;70521;47.468;19.306;2024-01-25T15:53:56;9.25;;;7.80;;
81036;SDS011;70521;47.468;19.306;2024-01-25T15:56:57;8.88;;;8.40;;
81036;SDS011;70521;47.468;19.306;2024-01-25T15:59:58;10.38;;;9.77;;
81036;SDS011;70521;47.468;19.306;2024-01-25T16:02:59;7.03;;;6.40;;
81036;SDS011;70521;47.468;19.306;2024-01-25T16:06:00;9.07;;;8.55;;
81036;SDS011;70521;47.468;19.306;2024-01-25T16:09:02;14.77;;;13.95;;
81036;SDS011;70521;47.468;19.306;2024-01-25T16:12:06;11.25;;;10.45;;
81036;SDS011;70521;47.468;19.306;2024-01-25T16:15:07;13.15;;;12.50;;
81036;SDS011;70521;47.468;19.306;2024-01-25T16:18:08;9.90;;;9.30;;
81036;SDS011;70521;47.468;19.306;2024-01-25T16:21:09;10.77;;;9.93;;
81036;SDS011;70521;47.468;19.306;2024-01-25T16:24:10;10.88;;;10.13;;
81036;SDS011;70521;47.468;19.306;2024-01-25T16:27:10;11.82;;;11.20;;
81036;SDS011;70521;47.468;19.306;2024-01-25T16:30:12;10.32;;;9.48;;
81036;SDS011;70521;47.468;19.306;2024-01-25T16:33:13;9.45;;;8.57;;
81036;SDS011;70521;47.468;19.306;2024-01-25T16:36:14;7.90;;;7.32;;
81036;SDS011;70521;47.468;19.306;2024-01-25T16:39:15;7.32;;;6.68;;
81036;SDS011;70521;47.468;19.306;2024-01-25T16:42:16;10.13;;;9.60;;
81036;SDS011;70521;47.468;19.306;2024-01-25T16:45:17;8.50;;;7.70;;
81036;SDS011;70521;47.468;19.306;2024-01-25T16:48:18;10.90;;;10.13;;
81036;SDS011;70521;47.468;19.306;2024-01-25T16:51:19;6.47;;;5.95;;
81036;SDS011;70521;47.468;19.306;2024-01-25T16:54:20;7.38;;;6.85;;
81036;SDS011;70521;47.468;19.306;2024-01-25T16:57:22;17.13;;;8.77;;
81036;SDS011;70521;47.468;19.306;2024-01-25T17:00:23;8.20;;;7.60;;
81036;SDS011;70521;47.468;19.306;2024-01-25T17:03:26;8.30;;;7.78;;
81036;SDS011;70521;47.468;19.306;2024-01-25T17:06:27;15.07;;;14.32;;
81036;SDS011;70521;47.468;19.306;2024-01-25T17:09:28;13.80;;;12.90;;
81036;SDS011;70521;47.468;19.306;2024-01-25T17:12:29;12.07;;;11.40;;
81036;SDS011;70521;47.468;19.306;2024-01-25T17:15:30;9.77;;;9.07;;
81036;SDS011;70521;47.468;19.306;2024-01-25T17:18:31;10.45;;;9.70;;
81036;SDS011;70521;47.468;19.306;2024-01-25T17:21:32;9.05;;;8.55;;
81036;SDS011;70521;47.468;19.306;2024-01-25T17:24:33;9.32;;;8.65;;
81036;SDS011;70521;47.468;19.306;2024-01-25T17:27:35;9.32;;;8.75;;
81036;SDS011;70521;47.468;19.306;2024-01-25T17:30:36;6.55;;;6.10;;
81036;SDS011;70521;47.468;19.306;2024-01-25T17:33:39;8.77;;;8.05;;
81036;SDS011;70521;47.468;19.306;2024-01-25T17:36:40;12.93;;;12.00;;
81036;SDS011;70521;47.468;19.306;2024-01-25T17:39:41;9.98;;;9.02;;
81036;SDS011;70521;47.468;19.306;2024-01-25T17:42:42;9.05;;;8.52;;
81036;SDS011;70521;47.468;19.306;2024-01-25T17:45:43;12.15;;;11.57;;
81036;SDS011;70521;47.468;19.306;2024-01-25T17:48:45;12.77;;;12.27;;